Savannah, GA (31405)

00:09 EST le 23 février 2017 (GMT -0500)
Chatham Crescent | | Change Station

Alt. 20 ft 32.04 °N, 81.10 °W | Updated 3 seconds ago

Scattered Clouds
Nuages épars
62.4 ° F
Paraît 62.4 ° F
N
0.0
Vent Variable Vent de ENE
Gusts 0.0 mph

Aujourd'hui
Haut(e) -- | Bas -- ° F
--% Risque de précip.
Hier
Haut(e) -- | Bas -- ° F
Precip. -- pouce
Pression 29.81 pouce
Visibilité 10.0 Miles terrestres
Nuages Nuages épars 14000 ft
Point de rosée 61 ° F
Humidité 94%
Précipitations 0.00 pouce
Profondeur de la couche neigeuse Non disponible.
6:58 AM 6:17 PM
Lune descendante, 13% visible
METAR KSVN 230458Z AUTO 00000KT 10SM SCT140 18/18 A2980 RMK AO2 SLP094 T01790179 401980161
Pression 29.81 pouce
Visibilité 10.0 Miles terrestres
Nuages Nuages épars 14000 ft
Point de rosée 61 ° F
Humidité 94%
Précipitations 0.00 pouce
Profondeur de la couche neigeuse Non disponible.
6:58 AM 6:17 PM
Lune descendante, 13% visible
METAR KSVN 230458Z AUTO 00000KT 10SM SCT140 18/18 A2980 RMK AO2 SLP094 T01790179 401980161

Get Your Daily Forecast Email!

Thanks for signing up!

Be on the lookout for a verification email in your inbox.

You'll start receiving the daily forecast at 8 AM.

×

10-Day Weather Forecast

Almanac

Astronomie

Feb. 23, 2017 Lever Coucher
Temps réel
Crépuscule civil
Crépuscule nautique
Crépuscule astronomique
Lune
Durée de lumière visible
Longueur du jour
Tomorrow will be .
, % of the Moon is Illuminated

Extrêmes aujourd'hui

State Highs State Lows

Community

WunderPhotos

Upload Photos

1,962,540 Photos téléchargées !

WunderBlog® & News

Nearby

Qualité de l'air

  Qualité de l'air Indice de la qualité de l'air Polluant
Not available.

Épaisseur de neige

Station Depth Altitude

Activité sismique

Ville Distance Mag. Time & Date
Minimum magnitude displayed is 2.5.

Températures des eaux côtières

Lieu Température

Stations

Stations météo à proximité

Emplacement de la station Température Refroidissement éolien Point de rosée Humidité Vent Precip. Alt. Mise à jour Type
                   

Watches & Warnings

There are currently no watches in effect.